LFNF weather

Aérodrome de Vinon
Vinon-sur-Verdon, Provence-Alpes-Côte-d'Azur, France

Public forecast

Using degrees Celsius for public forecast. Weather courtesy of forecast.io.

Closest aviation weather report (METAR) to Aérodrome de Vinon

Closest report is Marseille Provence Airport, 30.3 nm (56.2 km) SW. Retrieved 2020/08/07 11:30 UTC (0 seconds ago):

LFML 071130Z AUTO 26011KT CAVOK 31/15 Q1018 TEMPO 20010KT

Closest aviation forecast (TAF) to Aérodrome de Vinon

Closest forecast is Marseille Provence Airport, 30.3 nm (56.2 km) SW. Retrieved 2020/08/07 09:24 UTC (2 hours ago):

TAF TAF LFML 070800Z 0709/0815 29005KT CAVOK TX32/0712Z TN18/0804Z TEMPO 0713/0718 20010KT TEMPO 0721/0806 3000 BR BKN008